createdAt,value
2018-03-25T00:02:05.456Z,73.90
2018-03-25T00:04:34.508Z,73.60
2018-03-25T00:07:02.767Z,73.50
2018-03-25T00:09:31.085Z,73.40
2018-03-25T00:12:00.116Z,74.00
2018-03-25T00:14:28.383Z,74.00
2018-03-25T00:16:56.672Z,74.00
2018-03-25T00:19:25.761Z,74.00
2018-03-25T00:21:54.028Z,74.00
2018-03-25T00:24:22.311Z,74.10
2018-03-25T00:26:50.580Z,74.20
2018-03-25T00:29:18.849Z,74.10
2018-03-25T00:31:47.867Z,74.60
2018-03-25T00:34:16.144Z,74.60
2018-03-25T00:36:44.422Z,74.60
2018-03-25T00:39:12.737Z,75.00
2018-03-25T00:41:41.063Z,74.90
2018-03-25T00:44:09.341Z,75.60
2018-03-25T00:46:37.610Z,76.60
2018-03-25T00:49:05.869Z,76.90
2018-03-25T00:51:34.166Z,77.00
2018-03-25T00:54:02.442Z,77.00
2018-03-25T00:56:30.719Z,77.40
2018-03-25T00:58:59.037Z,78.20
2018-03-25T01:01:27.295Z,78.50
2018-03-25T01:03:55.561Z,77.80
2018-03-25T01:06:23.888Z,77.20
2018-03-25T01:08:52.186Z,76.90
2018-03-25T01:11:21.200Z,77.00
2018-03-25T01:13:49.549Z,77.00
2018-03-25T01:16:17.901Z,77.20
2018-03-25T01:18:46.182Z,77.00
2018-03-25T01:21:14.451Z,76.90
2018-03-25T01:23:42.693Z,77.20
2018-03-25T01:26:10.972Z,77.60
2018-03-25T01:28:39.257Z,78.00
2018-03-25T01:31:07.557Z,77.90
2018-03-25T01:33:35.829Z,77.80
2018-03-25T01:36:04.081Z,77.60
2018-03-25T01:38:32.344Z,77.70
2018-03-25T01:41:00.618Z,78.10
2018-03-25T01:43:28.881Z,78.10
2018-03-25T01:45:57.908Z,78.60
2018-03-25T01:48:26.184Z,78.50
2018-03-25T01:50:54.443Z,78.30
2018-03-25T01:53:22.719Z,78.00
2018-03-25T01:55:50.972Z,78.00
2018-03-25T01:58:19.236Z,78.20
2018-03-25T02:00:47.519Z,78.20
2018-03-25T02:03:15.771Z,78.10
2018-03-25T02:05:44.036Z,78.10
2018-03-25T02:08:12.269Z,78.20
2018-03-25T02:10:40.550Z,78.30
2018-03-25T02:13:08.807Z,78.10
2018-03-25T02:15:37.853Z,79.50
2018-03-25T02:18:06.098Z,79.50
2018-03-25T02:20:34.848Z,79.10
2018-03-25T02:23:03.104Z,79.40
2018-03-25T02:25:31.373Z,79.70
2018-03-25T02:27:59.664Z,79.70
2018-03-25T02:30:27.938Z,79.40
2018-03-25T02:32:56.207Z,79.30
2018-03-25T02:35:24.478Z,79.20
2018-03-25T02:37:52.758Z,79.20
2018-03-25T02:40:21.026Z,79.30
2018-03-25T02:42:49.309Z,79.20
2018-03-25T02:45:17.586Z,79.20
2018-03-25T02:47:45.848Z,79.30
2018-03-25T02:50:14.109Z,79.40
2018-03-25T02:52:42.375Z,79.40
2018-03-25T02:55:10.645Z,79.60
2018-03-25T02:57:38.927Z,79.80
2018-03-25T03:00:07.209Z,80.00
2018-03-25T03:02:35.542Z,80.00
2018-03-25T03:05:03.812Z,80.20
2018-03-25T03:07:32.074Z,80.50
2018-03-25T03:10:00.340Z,80.20
2018-03-25T03:12:28.600Z,81.10
2018-03-25T03:14:56.933Z,81.70
2018-03-25T03:17:25.948Z,80.90
2018-03-25T03:19:54.222Z,80.80
2018-03-25T03:22:22.479Z,80.90
2018-03-25T03:24:50.749Z,80.90
2018-03-25T03:27:19.789Z,81.10
2018-03-25T03:29:48.040Z,81.10
2018-03-25T03:32:16.310Z,81.30
2018-03-25T03:34:44.584Z,81.30
2018-03-25T03:37:13.609Z,81.10
2018-03-25T03:39:41.956Z,81.10
2018-03-25T03:42:10.251Z,81.30
2018-03-25T03:44:38.516Z,81.30
2018-03-25T03:47:07.554Z,81.50
2018-03-25T03:49:35.802Z,81.50
2018-03-25T03:52:04.064Z,82.30
2018-03-25T03:54:32.329Z,82.20
2018-03-25T03:57:01.356Z,81.70
2018-03-25T03:59:29.624Z,81.60
2018-03-25T04:01:57.884Z,81.90
2018-03-25T04:04:26.990Z,82.50
2018-03-25T04:06:55.269Z,82.90
2018-03-25T04:09:23.524Z,82.80
2018-03-25T04:11:52.539Z,82.70
2018-03-25T04:14:20.794Z,82.60
2018-03-25T04:16:49.821Z,83.10
2018-03-25T04:19:18.099Z,83.00
2018-03-25T04:21:46.345Z,82.80
2018-03-25T04:24:15.397Z,82.70
2018-03-25T04:26:43.628Z,82.70
2018-03-25T04:29:11.891Z,82.90
2018-03-25T04:31:40.221Z,82.50
2018-03-25T04:34:08.512Z,81.80
2018-03-25T04:36:36.762Z,81.00
2018-03-25T04:39:05.021Z,81.60
2018-03-25T04:41:33.271Z,82.10
2018-03-25T04:44:01.536Z,82.40
2018-03-25T04:46:29.835Z,83.70
2018-03-25T04:48:58.115Z,83.40
2018-03-25T04:51:26.377Z,83.80
2018-03-25T04:53:55.412Z,83.20
2018-03-25T04:56:24.426Z,82.80
2018-03-25T04:58:52.694Z,82.80
2018-03-25T05:01:20.948Z,82.70
2018-03-25T05:03:49.204Z,82.80
2018-03-25T05:06:17.465Z,82.90
2018-03-25T05:08:45.719Z,82.90
2018-03-25T05:11:14.750Z,84.30
2018-03-25T05:13:43.001Z,84.30
2018-03-25T05:16:12.033Z,84.20
2018-03-25T05:18:40.288Z,84.20
2018-03-25T05:21:08.560Z,84.10
2018-03-25T05:23:36.817Z,84.20
2018-03-25T05:26:05.844Z,84.70
2018-03-25T05:28:34.089Z,84.70
2018-03-25T05:31:03.129Z,84.10
2018-03-25T05:33:31.391Z,84.10
2018-03-25T05:35:59.635Z,83.80
2018-03-25T05:38:28.660Z,83.60
2018-03-25T05:40:56.905Z,83.50
2018-03-25T05:43:25.955Z,83.00
2018-03-25T05:45:54.209Z,83.00
2018-03-25T05:48:22.486Z,83.00
2018-03-25T05:50:50.731Z,83.60
2018-03-25T05:53:19.776Z,83.80
2018-03-25T05:55:48.032Z,83.70
2018-03-25T05:58:16.352Z,82.90
2018-03-25T06:00:44.588Z,82.50
2018-03-25T06:03:12.848Z,82.90
2018-03-25T06:05:41.128Z,82.20
2018-03-25T06:08:09.402Z,81.80
2018-03-25T06:10:37.670Z,81.30
2018-03-25T06:13:05.957Z,80.30
2018-03-25T06:15:34.253Z,79.70
2018-03-25T06:18:02.512Z,79.70
2018-03-25T06:20:30.775Z,79.30
2018-03-25T06:22:59.054Z,79.20
2018-03-25T06:25:27.328Z,78.90
2018-03-25T06:27:55.592Z,78.90
2018-03-25T06:30:24.621Z,79.30
2018-03-25T06:32:52.882Z,78.50
2018-03-25T06:35:21.186Z,78.50
2018-03-25T06:37:49.432Z,78.40
2018-03-25T06:40:17.720Z,78.00
2018-03-25T06:42:45.988Z,78.20
2018-03-25T06:45:14.261Z,78.10
2018-03-25T06:47:42.509Z,77.90
2018-03-25T06:50:10.780Z,78.10
2018-03-25T06:52:39.033Z,77.60
2018-03-25T06:55:07.299Z,77.90
2018-03-25T06:57:35.569Z,77.90
2018-03-25T07:00:03.820Z,77.60
2018-03-25T07:02:32.090Z,77.80
2018-03-25T07:05:00.376Z,77.90
2018-03-25T07:07:28.675Z,77.50
2018-03-25T07:09:56.968Z,77.90
2018-03-25T07:12:25.251Z,77.70
2018-03-25T07:14:53.543Z,77.30
2018-03-25T07:17:21.866Z,77.10
2018-03-25T07:19:50.122Z,76.70
2018-03-25T07:22:18.417Z,76.60
2018-03-25T07:24:46.686Z,76.30
2018-03-25T07:27:15.015Z,76.20
2018-03-25T07:29:43.275Z,76.00
2018-03-25T07:32:12.305Z,76.30
2018-03-25T07:34:41.360Z,75.60
2018-03-25T07:37:09.678Z,76.30
2018-03-25T07:39:38.998Z,75.70
2018-03-25T07:42:07.254Z,75.70
2018-03-25T07:44:36.312Z,75.60
2018-03-25T07:47:05.341Z,75.20
2018-03-25T07:49:34.372Z,75.40
2018-03-25T07:52:02.638Z,75.40
2018-03-25T07:54:30.927Z,75.50
2018-03-25T07:56:59.214Z,75.20
2018-03-25T07:59:28.266Z,75.10
2018-03-25T08:01:57.328Z,74.40
2018-03-25T08:04:25.604Z,74.40
2018-03-25T08:06:53.894Z,74.40
2018-03-25T08:09:22.145Z,74.30
2018-03-25T08:11:50.417Z,74.30
2018-03-25T08:14:19.467Z,73.30
2018-03-25T08:16:47.736Z,72.80
2018-03-25T08:19:16.022Z,72.80
2018-03-25T08:21:44.280Z,72.40
2018-03-25T08:24:13.380Z,71.20
2018-03-25T08:26:41.678Z,71.20
2018-03-25T08:29:09.973Z,70.90
2018-03-25T08:31:38.996Z,70.00
2018-03-25T08:34:07.267Z,70.00
2018-03-25T08:36:35.557Z,69.50
2018-03-25T08:39:03.826Z,69.30
2018-03-25T08:41:32.104Z,68.90
2018-03-25T08:44:00.377Z,68.10
2018-03-25T08:46:28.657Z,67.40
2018-03-25T08:48:56.926Z,66.70
2018-03-25T08:51:25.209Z,66.20
2018-03-25T08:53:53.482Z,66.20
2018-03-25T08:56:21.765Z,66.20
2018-03-25T08:58:50.073Z,65.90
2018-03-25T09:01:18.407Z,65.30
2018-03-25T09:03:46.805Z,65.30
2018-03-25T09:06:15.198Z,64.90
2018-03-25T09:08:44.330Z,65.70
2018-03-25T09:11:12.831Z,65.60
2018-03-25T09:13:41.126Z,65.40
2018-03-25T09:16:09.501Z,65.70
2018-03-25T09:18:37.909Z,65.20
2018-03-25T09:21:06.168Z,64.60
2018-03-25T09:23:34.508Z,64.60
2018-03-25T09:26:02.907Z,64.80
2018-03-25T09:28:31.196Z,64.90
2018-03-25T09:30:59.535Z,64.40
2018-03-25T09:33:27.807Z,64.10
2018-03-25T09:35:56.216Z,63.30
2018-03-25T09:38:24.599Z,63.20
2018-03-25T09:40:52.980Z,62.50
2018-03-25T09:43:22.093Z,62.30
2018-03-25T09:45:50.590Z,61.70
2018-03-25T09:48:18.840Z,61.70
2018-03-25T09:50:48.044Z,62.20
2018-03-25T09:53:16.354Z,61.90
2018-03-25T09:55:46.326Z,61.10
2018-03-25T09:58:14.754Z,61.10
2018-03-25T10:00:53.905Z,60.70
2018-03-25T10:03:30.946Z,61.00
2018-03-25T10:06:01.322Z,60.70
2018-03-25T10:08:30.081Z,60.70
2018-03-25T10:10:58.379Z,60.30
2018-03-25T10:13:26.751Z,60.60
2018-03-25T10:15:55.034Z,59.40
2018-03-25T10:18:24.120Z,58.90
2018-03-25T10:20:53.521Z,59.10
2018-03-25T10:23:22.861Z,58.70
2018-03-25T10:25:51.120Z,58.20
2018-03-25T10:28:20.971Z,58.20
2018-03-25T10:30:49.306Z,57.50
2018-03-25T10:33:17.572Z,57.50
2018-03-25T10:35:45.832Z,57.30
2018-03-25T10:38:14.158Z,57.90
2018-03-25T10:40:43.389Z,57.80
2018-03-25T10:43:12.562Z,57.60
2018-03-25T10:45:40.821Z,57.40
2018-03-25T10:48:10.440Z,57.20
2018-03-25T10:50:42.229Z,57.50
2018-03-25T10:53:11.851Z,57.20
2018-03-25T10:55:40.104Z,56.80
2018-03-25T10:58:08.391Z,55.60
2018-03-25T11:00:37.534Z,55.30
2018-03-25T11:03:05.842Z,55.10
2018-03-25T11:05:35.682Z,54.60
2018-03-25T11:08:04.006Z,54.60
2018-03-25T11:10:32.311Z,53.20
2018-03-25T11:13:00.599Z,52.70
2018-03-25T11:15:28.970Z,53.20
2018-03-25T11:17:57.498Z,53.20
2018-03-25T11:20:26.486Z,53.00
2018-03-25T11:22:55.955Z,52.90
2018-03-25T11:25:27.925Z,53.60
2018-03-25T11:27:57.050Z,53.70
2018-03-25T11:30:26.387Z,53.60
2018-03-25T11:32:54.732Z,53.60
2018-03-25T11:35:23.028Z,53.70
2018-03-25T11:37:51.312Z,53.40
2018-03-25T11:40:19.584Z,54.00
2018-03-25T11:42:48.114Z,53.20
2018-03-25T11:45:17.140Z,52.30
2018-03-25T11:47:45.483Z,52.20
2018-03-25T11:50:13.747Z,52.10
2018-03-25T11:52:42.879Z,52.40
2018-03-25T11:55:11.207Z,52.80
2018-03-25T11:57:39.663Z,52.60
2018-03-25T12:00:08.066Z,52.00
2018-03-25T12:02:36.562Z,51.00
2018-03-25T12:05:04.899Z,50.90
2018-03-25T12:07:33.229Z,50.70
2018-03-25T12:10:02.316Z,50.10
2018-03-25T12:12:32.241Z,50.50
2018-03-25T12:15:01.552Z,49.50
2018-03-25T12:17:30.042Z,49.50
2018-03-25T12:20:00.417Z,49.40
2018-03-25T12:22:29.231Z,49.30
2018-03-25T12:24:57.601Z,49.10
2018-03-25T12:27:26.110Z,48.30
2018-03-25T12:29:55.372Z,48.70
2018-03-25T12:32:25.347Z,48.60
2018-03-25T12:34:56.491Z,48.50
2018-03-25T12:37:25.607Z,48.10
2018-03-25T12:39:53.880Z,48.10
2018-03-25T12:42:22.217Z,47.60
2018-03-25T12:44:51.195Z,47.70
2018-03-25T12:47:21.557Z,48.20
2018-03-25T12:49:49.796Z,48.10
2018-03-25T12:52:18.916Z,47.90
2018-03-25T12:54:47.248Z,47.90
2018-03-25T12:57:15.645Z,47.80
2018-03-25T12:59:45.655Z,47.70
2018-03-25T13:02:13.977Z,48.00
2018-03-25T13:04:42.388Z,47.90
2018-03-25T13:07:10.925Z,47.80
2018-03-25T13:09:39.299Z,48.20
2018-03-25T13:12:08.449Z,47.90
2018-03-25T13:14:37.473Z,48.30
2018-03-25T13:17:07.388Z,47.60
2018-03-25T13:19:35.759Z,47.60
2018-03-25T13:22:05.289Z,48.30
2018-03-25T13:24:33.597Z,48.30
2018-03-25T13:27:04.715Z,48.30
2018-03-25T13:29:33.975Z,48.80
2018-03-25T13:32:02.358Z,48.40
2018-03-25T13:34:30.658Z,48.10
2018-03-25T13:36:59.046Z,48.10
2018-03-25T13:39:28.184Z,47.50
2018-03-25T13:41:56.495Z,47.50
2018-03-25T13:44:24.829Z,47.30
2018-03-25T13:46:53.108Z,47.10
2018-03-25T13:49:21.400Z,47.20
2018-03-25T13:51:49.712Z,47.40
2018-03-25T13:54:18.010Z,47.20
2018-03-25T13:56:46.630Z,46.60
2018-03-25T13:59:14.958Z,46.50
2018-03-25T14:01:43.971Z,46.70
2018-03-25T14:04:12.276Z,46.70
2018-03-25T14:06:41.547Z,46.80
2018-03-25T14:09:09.819Z,46.30
2018-03-25T14:11:38.128Z,46.10
2018-03-25T14:14:06.419Z,46.20
2018-03-25T14:16:34.696Z,46.50
2018-03-25T14:19:03.002Z,46.20
2018-03-25T14:21:31.310Z,47.00
2018-03-25T14:24:00.729Z,47.40
2018-03-25T14:26:29.034Z,47.30
2018-03-25T14:28:57.423Z,47.30
2018-03-25T14:31:25.699Z,47.10
2018-03-25T14:33:54.009Z,47.30
2018-03-25T14:36:22.364Z,47.60
2018-03-25T14:38:51.499Z,47.60
2018-03-25T14:41:19.866Z,47.60
2018-03-25T14:43:48.151Z,48.20
2018-03-25T14:46:16.497Z,47.50
2018-03-25T14:48:45.582Z,47.70
2018-03-25T14:51:14.624Z,48.10
2018-03-25T14:53:42.920Z,48.00
2018-03-25T14:56:11.176Z,48.20
2018-03-25T14:58:39.533Z,47.50
2018-03-25T15:01:07.890Z,47.80
2018-03-25T15:03:36.202Z,48.20
2018-03-25T15:06:04.544Z,48.30
2018-03-25T15:08:32.826Z,48.60
2018-03-25T15:11:01.151Z,49.70
2018-03-25T15:13:30.642Z,48.90
2018-03-25T15:15:58.897Z,49.80
2018-03-25T15:18:27.515Z,49.40
2018-03-25T15:20:55.824Z,49.60
2018-03-25T15:23:24.138Z,49.70
2018-03-25T15:25:52.418Z,49.90
2018-03-25T15:28:20.803Z,50.10
2018-03-25T15:30:49.120Z,50.20
2018-03-25T15:33:17.446Z,49.80
2018-03-25T15:35:45.731Z,50.60
2018-03-25T15:38:14.292Z,50.30
2018-03-25T15:40:42.581Z,50.20
2018-03-25T15:43:10.866Z,50.30
2018-03-25T15:45:39.744Z,49.70
2018-03-25T15:48:08.803Z,50.40
2018-03-25T15:50:38.327Z,50.30
2018-03-25T15:53:07.425Z,50.40
2018-03-25T15:55:35.710Z,50.40
2018-03-25T15:58:03.997Z,50.40
2018-03-25T16:00:32.628Z,51.30
2018-03-25T16:03:00.920Z,50.80
2018-03-25T16:05:29.163Z,50.80
2018-03-25T16:07:57.454Z,51.20
2018-03-25T16:10:25.745Z,51.60
2018-03-25T16:12:54.120Z,51.60
2018-03-25T16:15:22.392Z,51.50
2018-03-25T16:17:50.680Z,51.80
2018-03-25T16:20:18.977Z,51.80
2018-03-25T16:22:47.265Z,52.30
2018-03-25T16:25:15.572Z,52.40
2018-03-25T16:27:43.832Z,52.80
2018-03-25T16:30:12.104Z,53.20
2018-03-25T16:32:40.376Z,53.50
2018-03-25T16:35:08.680Z,53.70
2018-03-25T16:37:37.021Z,53.90
2018-03-25T16:40:05.345Z,53.80
2018-03-25T16:42:33.641Z,53.90
2018-03-25T16:45:01.946Z,54.00
2018-03-25T16:47:30.239Z,54.10
2018-03-25T16:49:58.546Z,54.60
2018-03-25T16:52:26.884Z,54.10
2018-03-25T16:54:55.168Z,54.50
2018-03-25T16:57:23.525Z,54.20
2018-03-25T16:59:51.802Z,54.10
2018-03-25T17:02:21.417Z,53.60
2018-03-25T17:04:50.508Z,54.10
2018-03-25T17:07:18.726Z,54.10
2018-03-25T17:09:47.047Z,53.80
2018-03-25T17:12:15.400Z,54.00
2018-03-25T17:14:44.434Z,54.60
2018-03-25T17:17:13.346Z,54.20
2018-03-25T17:19:42.893Z,54.30
2018-03-25T17:22:11.286Z,54.90
2018-03-25T17:24:40.553Z,54.80
2018-03-25T17:27:09.658Z,55.00
2018-03-25T17:29:37.929Z,54.80
2018-03-25T17:32:06.239Z,54.80
2018-03-25T17:34:34.500Z,55.80
2018-03-25T17:37:02.789Z,55.00
2018-03-25T17:39:31.073Z,55.50
2018-03-25T17:42:00.113Z,56.00
2018-03-25T17:44:28.404Z,55.90
2018-03-25T17:46:56.700Z,55.80
2018-03-25T17:49:25.073Z,55.70
2018-03-25T17:51:53.349Z,56.50
2018-03-25T17:54:21.661Z,56.60
2018-03-25T17:56:50.697Z,57.80
2018-03-25T17:59:19.017Z,57.60
2018-03-25T18:01:47.292Z,57.50
2018-03-25T18:04:15.630Z,58.80
2018-03-25T18:06:44.038Z,58.90
2018-03-25T18:09:12.358Z,58.00
2018-03-25T18:11:41.434Z,58.70
2018-03-25T18:14:09.836Z,58.70
2018-03-25T18:16:43.439Z,59.30
2018-03-25T18:19:11.737Z,58.90
2018-03-25T18:21:40.092Z,59.30
2018-03-25T18:24:08.607Z,59.80
2018-03-25T18:26:36.933Z,59.70
2018-03-25T18:29:05.299Z,59.90
2018-03-25T18:31:33.632Z,59.60
2018-03-25T18:34:01.901Z,59.60
2018-03-25T18:36:31.148Z,60.50
2018-03-25T18:39:00.295Z,60.20
2018-03-25T18:41:29.384Z,60.70
2018-03-25T18:43:57.837Z,60.30
2018-03-25T18:46:26.931Z,60.50
2018-03-25T18:48:55.243Z,60.50
2018-03-25T18:51:23.536Z,60.60
2018-03-25T18:53:51.821Z,60.00
2018-03-25T18:56:20.193Z,59.80
2018-03-25T18:58:48.733Z,60.70
2018-03-25T19:01:17.896Z,60.50
2018-03-25T19:03:46.222Z,60.50
2018-03-25T19:06:14.501Z,60.70
2018-03-25T19:08:42.791Z,61.30
2018-03-25T19:11:11.096Z,61.00
2018-03-25T19:13:39.403Z,61.10
2018-03-25T19:16:07.692Z,61.70
2018-03-25T19:18:36.716Z,62.50
2018-03-25T19:21:04.999Z,62.00
2018-03-25T19:23:33.254Z,62.30
2018-03-25T19:26:01.521Z,62.20
2018-03-25T19:28:29.849Z,62.50
2018-03-25T19:30:58.118Z,62.60
2018-03-25T19:33:27.161Z,62.70
2018-03-25T19:35:57.066Z,63.70
2018-03-25T19:38:26.112Z,63.50
2018-03-25T19:40:54.395Z,63.50
2018-03-25T19:43:23.813Z,63.20
2018-03-25T19:45:52.296Z,63.60
2018-03-25T19:48:20.635Z,63.40
2018-03-25T19:50:49.493Z,63.40
2018-03-25T19:53:18.462Z,63.40
2018-03-25T19:55:46.752Z,63.60
2018-03-25T19:58:15.034Z,63.60
2018-03-25T20:00:44.087Z,64.10
2018-03-25T20:03:12.413Z,64.00
2018-03-25T20:05:41.440Z,63.70
2018-03-25T20:08:09.716Z,63.70
2018-03-25T20:10:37.972Z,64.40
2018-03-25T20:13:06.375Z,64.40
2018-03-25T20:15:34.638Z,64.10
2018-03-25T20:18:03.018Z,64.70
2018-03-25T20:20:31.301Z,65.00
2018-03-25T20:22:59.584Z,64.50
2018-03-25T20:25:27.883Z,64.80
2018-03-25T20:27:56.293Z,65.10
2018-03-25T20:30:25.338Z,64.60
2018-03-25T20:32:53.693Z,64.60
2018-03-25T20:35:21.955Z,64.60
2018-03-25T20:37:50.225Z,65.10
2018-03-25T20:40:18.519Z,64.70
2018-03-25T20:42:46.790Z,64.80
2018-03-25T20:45:15.072Z,65.10
2018-03-25T20:47:43.399Z,64.50
2018-03-25T20:50:11.664Z,64.20
2018-03-25T20:52:39.946Z,64.90
2018-03-25T20:55:08.256Z,64.60
2018-03-25T20:57:37.300Z,64.30
2018-03-25T21:00:05.577Z,64.30
2018-03-25T21:02:33.946Z,63.80
2018-03-25T21:05:02.225Z,63.90
2018-03-25T21:07:30.495Z,63.60
2018-03-25T21:09:58.794Z,63.80
2018-03-25T21:12:27.111Z,63.70
2018-03-25T21:14:55.405Z,63.90
2018-03-25T21:17:23.712Z,63.40
2018-03-25T21:19:52.002Z,63.90
2018-03-25T21:22:20.286Z,62.70
2018-03-25T21:24:48.557Z,62.60
2018-03-25T21:27:16.845Z,62.50
2018-03-25T21:29:45.118Z,63.50
2018-03-25T21:32:13.430Z,63.20
2018-03-25T21:34:41.761Z,62.90
2018-03-25T21:37:10.034Z,63.20
2018-03-25T21:39:38.352Z,63.50
2018-03-25T21:42:06.664Z,63.00
2018-03-25T21:44:35.697Z,63.10
2018-03-25T21:47:03.994Z,62.80
2018-03-25T21:49:32.305Z,62.60
2018-03-25T21:52:00.567Z,62.70
2018-03-25T21:54:28.836Z,62.40
2018-03-25T21:56:57.993Z,62.60
2018-03-25T21:59:26.237Z,62.80
2018-03-25T22:01:54.516Z,63.10
2018-03-25T22:04:22.853Z,63.60
2018-03-25T22:06:51.890Z,64.70
2018-03-25T22:09:20.153Z,64.00
2018-03-25T22:11:48.407Z,64.60
2018-03-25T22:14:16.772Z,64.80
2018-03-25T22:16:45.807Z,64.50
2018-03-25T22:19:14.095Z,64.50
2018-03-25T22:21:42.348Z,65.00
2018-03-25T22:24:10.632Z,65.40
2018-03-25T22:26:38.896Z,65.40
2018-03-25T22:29:07.156Z,65.40
2018-03-25T22:31:36.208Z,65.50
2018-03-25T22:34:04.473Z,65.50
2018-03-25T22:36:32.752Z,65.30
2018-03-25T22:39:01.018Z,65.70
2018-03-25T22:41:29.286Z,65.80
2018-03-25T22:43:57.537Z,66.70
2018-03-25T22:46:25.809Z,66.60
2018-03-25T22:48:54.837Z,66.90
2018-03-25T22:51:23.139Z,66.80
2018-03-25T22:53:51.390Z,66.50
2018-03-25T22:56:19.682Z,66.40
2018-03-25T22:58:47.914Z,66.60
2018-03-25T23:01:16.196Z,66.90
2018-03-25T23:03:45.240Z,67.40
2018-03-25T23:06:13.588Z,67.40
2018-03-25T23:08:41.840Z,68.10
2018-03-25T23:11:10.099Z,68.30
2018-03-25T23:13:39.117Z,68.30
2018-03-25T23:16:07.427Z,68.30
2018-03-25T23:18:35.707Z,68.50
2018-03-25T23:21:03.964Z,67.80
2018-03-25T23:23:32.263Z,67.70
2018-03-25T23:26:00.548Z,67.90
2018-03-25T23:28:28.813Z,68.20
2018-03-25T23:30:57.833Z,67.90
2018-03-25T23:33:26.855Z,68.90
2018-03-25T23:35:55.115Z,68.30
2018-03-25T23:38:23.376Z,68.60
2018-03-25T23:40:52.392Z,70.00
2018-03-25T23:43:21.437Z,69.40
2018-03-25T23:45:49.689Z,69.30
2018-03-25T23:48:18.032Z,69.80
2018-03-25T23:50:47.064Z,69.80
2018-03-25T23:53:15.340Z,69.80
2018-03-25T23:55:43.602Z,70.10
2018-03-25T23:58:11.868Z,69.10
